createdAt,value
2018-01-06T00:00:54.002Z,985.4949
2018-01-06T00:01:53.932Z,985.4504
2018-01-06T00:02:55.758Z,985.4679
2018-01-06T00:03:53.761Z,985.549
2018-01-06T00:04:53.734Z,985.5271
2018-01-06T00:05:56.975Z,985.5355
2018-01-06T00:06:56.933Z,985.4731
2018-01-06T00:07:56.358Z,985.5002
2018-01-06T00:08:54.068Z,985.435
2018-01-06T00:09:54.219Z,985.3862
2018-01-06T00:11:00.685Z,985.4171
2018-01-06T00:11:57.116Z,985.4664
2018-01-06T00:12:57.456Z,985.5284
2018-01-06T00:14:06.087Z,985.4963
2018-01-06T00:14:58.521Z,985.4246
2018-01-06T00:15:56.456Z,985.569
2018-01-06T00:16:55.202Z,985.5316
2018-01-06T00:17:54.118Z,985.5412
2018-01-06T00:18:58.592Z,985.5419
2018-01-06T00:20:00.132Z,985.4672
2018-01-06T00:20:54.167Z,985.4807
2018-01-06T00:21:54.006Z,985.5204
2018-01-06T00:23:02.183Z,985.5463
2018-01-06T00:23:54.804Z,985.6306
2018-01-06T00:24:55.643Z,985.6396
2018-01-06T00:25:53.627Z,985.6043
2018-01-06T00:26:53.809Z,985.6666
2018-01-06T00:27:54.069Z,985.6741
2018-01-06T00:28:53.677Z,985.6555
2018-01-06T00:29:55.124Z,985.6769
2018-01-06T00:30:56.631Z,985.6619
2018-01-06T00:31:54.438Z,985.6793
2018-01-06T00:32:55.498Z,985.731
2018-01-06T00:33:54.268Z,985.7136
2018-01-06T00:34:53.669Z,985.752
2018-01-06T00:35:53.829Z,985.7791
2018-01-06T00:36:54.214Z,985.7282
2018-01-06T00:37:53.943Z,985.6866
2018-01-06T00:38:55.586Z,985.7147
2018-01-06T00:39:54.092Z,985.7258
2018-01-06T00:40:59.634Z,985.6993
2018-01-06T00:41:54.509Z,985.6929
2018-01-06T00:42:55.296Z,985.8164
2018-01-06T00:43:55.042Z,985.8092
2018-01-06T00:44:53.626Z,985.8819
2018-01-06T00:45:54.061Z,985.8683
2018-01-06T00:46:54.385Z,985.9236
2018-01-06T00:47:53.768Z,985.9816
2018-01-06T00:48:59.053Z,986.0376
2018-01-06T00:49:53.651Z,986.0305
2018-01-06T00:50:53.744Z,986.0106
2018-01-06T00:51:54.175Z,986.0242
2018-01-06T00:52:53.766Z,986.0281
2018-01-06T00:53:53.913Z,986.0781
2018-01-06T00:54:53.953Z,986.0891
2018-01-06T00:55:57.339Z,986.0685
2018-01-06T00:56:54.724Z,986.0601
2018-01-06T00:57:54.223Z,986.0955
2018-01-06T00:58:53.899Z,986.0466
2018-01-06T00:59:55.143Z,986.1027
2018-01-06T01:00:54.723Z,986.1006
2018-01-06T01:01:55.025Z,986.2004
2018-01-06T01:02:56.543Z,986.1342
2018-01-06T01:03:55.412Z,986.1476
2018-01-06T01:04:53.824Z,986.1559
2018-01-06T01:05:54.064Z,986.1643
2018-01-06T01:06:54.115Z,986.2079
2018-01-06T01:07:54.157Z,986.2545
2018-01-06T01:08:53.714Z,986.2834
2018-01-06T01:09:54.715Z,986.3593
2018-01-06T01:11:00.149Z,986.316
2018-01-06T01:11:54.217Z,986.3835
2018-01-06T01:12:54.451Z,986.3593
2018-01-06T01:13:53.904Z,986.378
2018-01-06T01:14:54.375Z,986.3728
2018-01-06T01:15:54.898Z,986.3938
2018-01-06T01:16:53.796Z,986.3565
2018-01-06T01:17:54.530Z,986.3915
2018-01-06T01:18:55.173Z,986.3398
2018-01-06T01:19:54.470Z,986.3616
2018-01-06T01:20:54.007Z,986.374
2018-01-06T01:21:53.897Z,986.4021
2018-01-06T01:22:57.868Z,986.4105
2018-01-06T01:23:53.703Z,986.378
2018-01-06T01:25:02.290Z,986.4229
2018-01-06T01:25:53.657Z,986.345
2018-01-06T01:26:54.337Z,986.4146
2018-01-06T01:27:53.900Z,986.4117
2018-01-06T01:28:53.792Z,986.3816
2018-01-06T01:29:55.746Z,986.4002
2018-01-06T01:30:54.428Z,986.3752
2018-01-06T01:31:53.668Z,986.3669
2018-01-06T01:32:56.418Z,986.3918
2018-01-06T01:33:54.122Z,986.4908
2018-01-06T01:34:55.153Z,986.4464
2018-01-06T01:36:03.609Z,986.4328
2018-01-06T01:36:55.878Z,986.444
2018-01-06T01:37:56.133Z,986.4606
2018-01-06T01:38:55.977Z,986.471
2018-01-06T01:39:54.470Z,986.4701
2018-01-06T01:40:57.240Z,986.4836
2018-01-06T01:41:54.494Z,986.4805
2018-01-06T01:43:01.886Z,986.4559
2018-01-06T01:43:57.246Z,986.5659
2018-01-06T01:44:56.966Z,986.5139
2018-01-06T01:45:53.912Z,986.5273
2018-01-06T01:46:53.902Z,986.4924
2018-01-06T01:47:54.761Z,986.5432
2018-01-06T01:48:54.531Z,986.515
2018-01-06T01:49:54.041Z,986.5047
2018-01-06T01:50:56.654Z,986.5391
2018-01-06T01:51:54.593Z,986.4924
2018-01-06T01:52:53.820Z,986.5368
2018-01-06T01:53:55.885Z,986.5714
2018-01-06T01:54:54.632Z,986.615
2018-01-06T01:55:53.832Z,986.5952
2018-01-06T01:56:54.116Z,986.6138
2018-01-06T01:57:53.964Z,986.6492
2018-01-06T01:58:54.244Z,986.6535
2018-01-06T02:00:05.205Z,986.7325
2018-01-06T02:01:06.395Z,986.7428
2018-01-06T02:01:54.596Z,986.7937
2018-01-06T02:02:59.465Z,986.8071
2018-01-06T02:03:53.990Z,986.804
2018-01-06T02:04:54.045Z,986.8715
2018-01-06T02:05:59.563Z,986.8393
2018-01-06T02:06:55.998Z,986.7988
2018-01-06T02:07:55.015Z,986.8488
2018-01-06T02:08:57.910Z,986.8602
2018-01-06T02:09:54.580Z,986.8103
2018-01-06T02:10:54.485Z,986.8437
2018-01-06T02:11:53.737Z,986.8571
2018-01-06T02:12:53.989Z,986.8674
2018-01-06T02:13:56.785Z,986.8353
2018-01-06T02:14:54.000Z,986.9226
2018-01-06T02:15:53.907Z,986.906
2018-01-06T02:16:54.932Z,986.9444
2018-01-06T02:17:53.883Z,986.8968
2018-01-06T02:18:53.900Z,986.8698
2018-01-06T02:20:53.999Z,986.9424
2018-01-06T02:21:54.987Z,986.8968
2018-01-06T02:24:02.288Z,986.9453
2018-01-06T02:25:03.376Z,986.9766
2018-01-06T02:25:53.816Z,986.9384
2018-01-06T02:26:55.320Z,986.926
2018-01-06T02:27:54.414Z,986.959
2018-01-06T02:28:56.958Z,986.9911
2018-01-06T02:29:59.958Z,987.0661
2018-01-06T02:30:54.306Z,987.0558
2018-01-06T02:31:55.218Z,986.9911
2018-01-06T02:32:55.147Z,987.0245
2018-01-06T02:33:55.743Z,987.0879
2018-01-06T02:34:54.353Z,987.1284
2018-01-06T02:35:57.009Z,987.1233
2018-01-06T02:36:54.390Z,987.1262
2018-01-06T02:37:53.789Z,987.1801
2018-01-06T02:38:55.029Z,987.1097
2018-01-06T02:39:53.890Z,987.0558
2018-01-06T02:40:53.814Z,987.067
2018-01-06T02:41:54.585Z,986.984
2018-01-06T02:42:57.468Z,987.0474
2018-01-06T02:43:55.309Z,987.1083
2018-01-06T02:44:55.618Z,987.1015
2018-01-06T02:45:54.660Z,987.1177
2018-01-06T02:46:54.994Z,987.1448
2018-01-06T02:47:53.866Z,987.1356
2018-01-06T02:48:55.553Z,987.0796
2018-01-06T02:49:56.622Z,987.1243
2018-01-06T02:50:54.032Z,987.0379
2018-01-06T02:51:54.516Z,987.0649
2018-01-06T02:52:54.372Z,987.0983
2018-01-06T02:53:54.687Z,987.092
2018-01-06T02:54:53.892Z,987.0463
2018-01-06T02:55:54.434Z,987.1035
2018-01-06T02:57:04.849Z,987.1221
2018-01-06T02:58:06.154Z,987.1169
2018-01-06T02:58:54.606Z,987.2062
2018-01-06T02:59:54.073Z,987.1677
2018-01-06T03:00:54.943Z,987.1812
2018-01-06T03:01:56.861Z,987.1895
2018-01-06T03:02:53.844Z,987.1741
2018-01-06T03:03:54.137Z,987.1718
2018-01-06T03:05:00.055Z,987.1336
2018-01-06T03:05:53.793Z,987.1221
2018-01-06T03:06:54.304Z,987.176
2018-01-06T03:07:53.784Z,987.1439
2018-01-06T03:09:01.996Z,987.2258
2018-01-06T03:09:54.012Z,987.1852
2018-01-06T03:10:54.834Z,987.1937
2018-01-06T03:11:53.856Z,987.1772
2018-01-06T03:13:07.064Z,987.176
2018-01-06T03:14:04.866Z,987.1273
2018-01-06T03:16:06.391Z,987.1439
2018-01-06T03:16:56.012Z,987.1459
2018-01-06T03:17:53.929Z,987.1895
2018-01-06T03:19:04.995Z,987.1243
2018-01-06T03:19:53.896Z,987.1752
2018-01-06T03:20:53.816Z,987.1565
2018-01-06T03:21:53.933Z,987.2082
2018-01-06T03:22:54.029Z,987.1752
2018-01-06T03:24:03.513Z,987.2526
2018-01-06T03:24:53.926Z,987.2173
2018-01-06T03:25:53.887Z,987.2645
2018-01-06T03:26:54.195Z,987.3214
2018-01-06T03:27:53.857Z,987.2352
2018-01-06T03:28:56.704Z,987.2291
2018-01-06T03:29:55.737Z,987.2257
2018-01-06T03:32:00.271Z,987.2121
2018-01-06T03:32:54.175Z,987.1701
2018-01-06T03:33:54.128Z,987.2478
2018-01-06T03:34:56.438Z,987.1987
2018-01-06T03:35:53.800Z,987.1955
2018-01-06T03:36:53.938Z,987.1903
2018-01-06T03:37:53.999Z,987.1145
2018-01-06T03:38:53.947Z,987.1498
2018-01-06T03:39:57.063Z,987.1229
2018-01-06T03:40:55.737Z,987.1498
2018-01-06T03:41:54.044Z,987.1521
2018-01-06T03:42:54.021Z,987.1136
2018-01-06T03:43:54.092Z,987.1573
2018-01-06T03:44:53.869Z,987.1676
2018-01-06T03:45:58.120Z,987.0764
2018-01-06T03:46:54.487Z,987.1708
2018-01-06T03:47:58.539Z,987.1541
2018-01-06T03:48:55.898Z,987.2371
2018-01-06T03:49:54.884Z,987.2319
2018-01-06T03:50:54.287Z,987.1946
2018-01-06T03:52:03.229Z,987.1989
2018-01-06T03:52:53.802Z,987.1635
2018-01-06T03:53:54.833Z,987.2258
2018-01-06T03:55:04.897Z,987.204
2018-01-06T03:55:55.342Z,987.3254
2018-01-06T03:57:05.304Z,987.2933
2018-01-06T03:57:54.385Z,987.3347
2018-01-06T03:59:04.008Z,987.2933
2018-01-06T04:00:04.951Z,987.2631
2018-01-06T04:00:55.513Z,987.2413
2018-01-06T04:02:06.183Z,987.2651
2018-01-06T04:03:09.114Z,987.2599
2018-01-06T04:03:57.052Z,987.2487
2018-01-06T04:04:56.625Z,987.3036
2018-01-06T04:05:53.804Z,987.311
2018-01-06T04:06:54.044Z,987.3398
2018-01-06T04:07:53.830Z,987.3855
2018-01-06T04:08:53.912Z,987.4012
2018-01-06T04:09:54.244Z,987.4282
2018-01-06T04:10:54.585Z,987.4333
2018-01-06T04:11:55.855Z,987.4883
2018-01-06T04:12:55.046Z,987.5153
2018-01-06T04:13:53.862Z,987.3962
2018-01-06T04:14:55.076Z,987.423
2018-01-06T04:15:55.296Z,987.4096
2018-01-06T04:16:54.593Z,987.3711
2018-01-06T04:17:54.446Z,987.425
2018-01-06T04:18:57.096Z,987.4758
2018-01-06T04:19:57.196Z,987.5465
2018-01-06T04:20:53.912Z,987.5279
2018-01-06T04:21:58.927Z,987.4925
2018-01-06T04:22:53.745Z,987.5009
2018-01-06T04:23:53.759Z,987.4595
2018-01-06T04:24:54.092Z,987.5349
2018-01-06T04:25:56.468Z,987.5103
2018-01-06T04:26:57.238Z,987.5349
2018-01-06T04:27:56.753Z,987.5028
2018-01-06T04:28:54.888Z,987.508
2018-01-06T04:29:55.868Z,987.4293
2018-01-06T04:30:54.131Z,987.5215
2018-01-06T04:32:03.342Z,987.4572
2018-01-06T04:32:57.158Z,987.5246
2018-01-06T04:33:54.770Z,987.4893
2018-01-06T04:34:55.988Z,987.5539
2018-01-06T04:35:55.167Z,987.6057
2018-01-06T04:36:54.278Z,987.6368
2018-01-06T04:37:55.069Z,987.7023
2018-01-06T04:38:54.171Z,987.6648
2018-01-06T04:39:55.020Z,987.7238
2018-01-06T04:40:54.435Z,987.7271
2018-01-06T04:41:54.031Z,987.6754
2018-01-06T04:42:58.149Z,987.6721
2018-01-06T10:04:37.831Z,991.6779
2018-01-06T10:05:39.695Z,991.7184
2018-01-06T10:06:37.077Z,991.8102
2018-01-06T10:07:41.973Z,991.8156
2018-01-06T10:08:37.310Z,991.8585
2018-01-06T10:09:36.922Z,991.889
2018-01-06T10:10:39.607Z,991.9413
2018-01-06T10:11:36.652Z,991.9559
2018-01-06T10:12:36.636Z,991.983
2018-01-06T10:13:36.746Z,992.026
2018-01-06T10:14:37.153Z,992.0209
2018-01-06T10:15:39.595Z,992.0824
2018-01-06T10:16:38.043Z,992.0867
2018-01-06T10:17:36.703Z,992.0712
2018-01-06T10:18:37.712Z,992.0419
2018-01-06T10:19:36.724Z,992.0754
2018-01-06T10:20:36.804Z,992.0598
2018-01-06T10:21:36.900Z,992.0099
2018-01-06T10:22:37.503Z,992.0061
2018-01-06T10:23:36.723Z,992.0412
2018-01-06T10:24:37.157Z,992.0142
2018-01-06T10:25:36.692Z,992.0695
2018-01-06T10:26:36.764Z,992.029
2018-01-06T10:27:39.069Z,992.0444
2018-01-06T10:28:36.675Z,992.0056
2018-01-06T10:29:36.784Z,992.046
2018-01-06T10:30:36.931Z,992.0663
2018-01-06T10:31:36.722Z,992.0579
2018-01-06T10:32:38.836Z,992.056
2018-01-06T10:33:36.645Z,992.0477
2018-01-06T10:34:36.707Z,992.0966
2018-01-06T10:35:39.595Z,992.0276
2018-01-06T10:36:37.228Z,992.0704
2018-01-06T10:37:37.166Z,992.1161
2018-01-06T10:38:36.965Z,992.0826
2018-01-06T10:39:37.086Z,992.1232
2018-01-06T10:40:36.797Z,992.0951
2018-01-06T10:41:36.806Z,992.0919
2018-01-06T10:42:36.708Z,992.1138
2018-01-06T10:43:36.607Z,992.0714
2018-01-06T10:44:36.608Z,992.1421
2018-01-06T10:45:36.634Z,992.1129
2018-01-06T10:46:36.627Z,992.1785
2018-01-06T10:47:36.642Z,992.2285
2018-01-06T10:48:36.624Z,992.1995
2018-01-06T10:49:36.610Z,992.206
2018-01-06T10:50:36.616Z,992.2665
2018-01-06T10:51:36.636Z,992.2479
2018-01-06T10:52:36.636Z,992.2614
2018-01-06T10:53:36.676Z,992.2717
2018-01-06T10:54:36.609Z,992.3206
2018-01-06T10:55:37.316Z,992.2829
2018-01-06T10:56:36.786Z,992.3663
2018-01-06T10:57:39.610Z,992.3538
2018-01-06T10:58:37.329Z,992.3694
2018-01-06T10:59:38.379Z,992.3738
2018-01-06T11:00:37.275Z,992.411
2018-01-06T11:01:36.709Z,992.4517
2018-01-06T11:02:36.711Z,992.5005
2018-01-06T11:03:36.929Z,992.4713
2018-01-06T11:04:36.830Z,992.4662
2018-01-06T11:05:38.932Z,992.4442
2018-01-06T11:06:39.502Z,992.461
2018-01-06T11:07:36.751Z,992.4559
2018-01-06T11:08:37.330Z,992.5005
2018-01-06T11:09:36.808Z,992.5773
2018-01-06T11:10:38.151Z,992.5419
2018-01-06T11:11:39.806Z,992.5587
2018-01-06T11:12:36.855Z,992.569
2018-01-06T11:13:36.834Z,992.5845
2018-01-06T11:14:36.789Z,992.5541
2018-01-06T11:15:36.923Z,992.6147
2018-01-06T11:16:36.966Z,992.6072
2018-01-06T11:17:36.759Z,992.6334
2018-01-06T11:18:36.903Z,992.6417
2018-01-06T11:19:37.021Z,992.6314
2018-01-06T11:20:37.808Z,992.6613
2018-01-06T11:21:41.978Z,992.7178
2018-01-06T11:22:38.717Z,992.7229
2018-01-06T11:23:38.840Z,992.6981
2018-01-06T11:24:36.834Z,992.7592
2018-01-06T11:25:36.699Z,992.7405
2018-01-06T11:26:36.825Z,992.7644
2018-01-06T11:27:36.949Z,992.8091
2018-01-06T11:28:37.526Z,992.7043
2018-01-06T11:29:36.840Z,992.8324
2018-01-06T11:30:38.322Z,992.7854
2018-01-06T11:31:37.459Z,992.8459
2018-01-06T11:32:37.226Z,992.854
2018-01-06T11:33:42.097Z,992.8303
2018-01-06T11:34:40.020Z,992.8405
2018-01-06T11:35:36.735Z,992.8334
2018-01-06T11:36:37.065Z,992.8707
2018-01-06T11:37:38.137Z,992.7961
2018-01-06T11:38:36.756Z,992.8044
2018-01-06T11:39:37.194Z,992.8074
2018-01-06T11:40:44.221Z,992.7804
2018-01-06T11:41:40.156Z,992.7938
2018-01-06T11:42:37.006Z,992.7617
2018-01-06T11:43:37.288Z,992.7938
2018-01-06T11:45:54.831Z,992.8782
2018-01-06T11:46:37.453Z,992.8615
2018-01-06T11:47:41.940Z,992.8856
2018-01-06T11:48:36.927Z,992.9155
2018-01-06T11:49:37.055Z,992.9261
2018-01-06T11:50:37.889Z,992.9155
2018-01-06T11:51:55.787Z,992.9001
2018-01-06T11:52:36.809Z,992.9478
2018-01-06T11:53:36.769Z,992.9532
2018-01-06T11:54:40.769Z,992.9071
2018-01-06T11:55:39.361Z,993.0073
2018-01-06T11:56:36.719Z,992.9881
2018-01-06T11:57:38.549Z,993.0287
2018-01-06T11:58:38.274Z,992.9746
2018-01-06T11:59:40.009Z,992.9933
2018-01-06T12:00:36.905Z,992.9849
2018-01-06T12:01:36.810Z,992.9662
2018-01-06T12:02:36.749Z,993.0547
2018-01-06T12:03:37.040Z,993.0757
2018-01-06T12:04:36.795Z,993.1276
2018-01-06T12:05:40.067Z,993.0954
2018-01-06T12:06:37.016Z,993.1224
2018-01-06T12:07:37.277Z,993.1462
2018-01-06T12:08:36.910Z,993.0954
2018-01-06T12:09:37.830Z,993.1368
2018-01-06T12:10:36.836Z,993.1004
2018-01-06T12:11:38.207Z,993.189
2018-01-06T12:12:36.931Z,993.1163
2018-01-06T12:13:36.832Z,993.0943
2018-01-06T12:14:36.971Z,993.0567
2018-01-06T12:15:41.471Z,993.1038
2018-01-06T12:16:36.831Z,993.1495
2018-01-06T12:17:36.958Z,993.1746
2018-01-06T12:18:37.675Z,993.183
2018-01-06T12:19:36.975Z,993.2273
2018-01-06T12:20:36.743Z,993.2202
2018-01-06T12:21:37.486Z,993.2865
2018-01-06T12:22:39.373Z,993.293
2018-01-06T12:23:37.875Z,993.1965
2018-01-06T12:24:37.193Z,993.3083
2018-01-06T12:25:36.823Z,993.3033
2018-01-06T12:26:36.776Z,993.2879
2018-01-06T12:27:36.804Z,993.3295
2018-01-06T12:28:37.364Z,993.2619
2018-01-06T12:29:37.164Z,993.2526
2018-01-06T12:30:36.824Z,993.2526
2018-01-06T12:31:37.455Z,993.2218
2018-01-06T12:32:36.978Z,993.2675
2018-01-06T12:33:37.344Z,993.3632
2018-01-06T12:34:36.901Z,993.3632
2018-01-06T12:35:37.035Z,993.4275
2018-01-06T12:36:36.932Z,993.3547
2018-01-06T12:37:38.085Z,993.304
2018-01-06T12:38:36.868Z,993.3259
2018-01-06T12:39:37.124Z,993.3963
2018-01-06T12:40:36.833Z,993.4018
2018-01-06T12:41:39.218Z,993.4453
2018-01-06T12:42:37.183Z,993.4943
2018-01-06T12:43:38.336Z,993.4943
2018-01-06T12:44:36.788Z,993.4829
2018-01-06T12:45:38.691Z,993.491
2018-01-06T12:46:36.887Z,993.5703
2018-01-06T12:47:36.840Z,993.567
2018-01-06T12:48:41.509Z,993.593
2018-01-06T12:49:36.889Z,993.6211
2018-01-06T12:50:36.835Z,993.6013
2018-01-06T12:51:37.319Z,993.6699
2018-01-06T12:52:37.062Z,993.6793
2018-01-06T12:53:36.788Z,993.669
2018-01-06T12:54:37.337Z,993.7063
2018-01-06T12:55:36.758Z,993.6857
2018-01-06T12:56:36.818Z,993.6895
2018-01-06T12:57:37.535Z,993.7039
2018-01-06T12:58:37.131Z,993.6945
2018-01-06T12:59:37.699Z,993.7672
2018-01-06T13:00:37.669Z,993.7018
2018-01-06T13:01:36.790Z,993.7191
2018-01-06T13:02:37.166Z,993.8002
2018-01-06T13:03:36.899Z,993.7432
2018-01-06T13:04:36.787Z,993.7502
2018-01-06T13:05:37.270Z,993.7458
2018-01-06T13:06:40.262Z,993.7929
2018-01-06T13:07:36.785Z,993.8013
2018-01-06T13:08:36.830Z,993.8616
2018-01-06T13:09:38.083Z,993.8454
2018-01-06T13:10:36.826Z,993.8399
2018-01-06T13:11:36.871Z,993.8859
2018-01-06T13:12:37.001Z,993.8702
2018-01-06T13:13:36.861Z,993.9048
2018-01-06T13:14:36.853Z,993.8766
2018-01-06T13:15:37.079Z,993.9166
2018-01-06T13:16:38.973Z,993.9241
2018-01-06T13:17:36.922Z,993.9066
2018-01-06T13:18:37.272Z,994.0023
2018-01-06T13:19:36.924Z,994.0078
2018-01-06T13:20:41.074Z,994.0348
2018-01-06T13:21:37.172Z,994.0158
2018-01-06T13:22:36.897Z,994.1188
2018-01-06T13:23:41.597Z,994.1158
2018-01-06T13:24:37.673Z,994.17
2018-01-06T13:25:36.821Z,994.1616
2018-01-06T13:26:41.872Z,994.1916
2018-01-06T13:27:44.544Z,994.1835
2018-01-06T13:28:38.945Z,994.1971
2018-01-06T13:29:36.864Z,994.2032
2018-01-06T13:30:38.064Z,994.2187
2018-01-06T13:31:49.058Z,994.2
2018-01-06T13:32:38.565Z,994.2709
2018-01-06T13:33:37.456Z,994.2625
2018-01-06T13:34:45.030Z,994.2812
2018-01-06T13:35:37.114Z,994.3063
2018-01-06T13:36:36.935Z,994.3636
2018-01-06T13:37:40.838Z,994.3138
2018-01-06T13:38:37.596Z,994.3708
2018-01-06T13:39:36.905Z,994.3574
2018-01-06T13:40:37.288Z,994.3876
2018-01-06T13:41:37.656Z,994.3357
2018-01-06T13:42:39.096Z,994.3793
2018-01-06T13:43:37.226Z,994.3438
2018-01-06T13:44:40.959Z,994.3574
2018-01-06T13:45:37.673Z,994.3793
2018-01-06T13:46:37.806Z,994.3815
2018-01-06T13:47:40.930Z,994.3679
2018-01-06T13:48:37.247Z,994.4034
2018-01-06T13:49:36.847Z,994.4272
2018-01-06T13:50:39.143Z,994.4272
2018-01-06T13:51:36.928Z,994.4612
2018-01-06T13:52:40.238Z,994.4313
2018-01-06T13:53:45.858Z,994.4551
2018-01-06T13:54:37.068Z,994.481
2018-01-06T13:55:36.837Z,994.4721
2018-01-06T13:56:37.030Z,994.4662
2018-01-06T13:57:42.515Z,994.5276
2018-01-06T13:58:37.465Z,994.4932
2018-01-06T13:59:41.776Z,994.4599
2018-01-06T14:00:37.289Z,994.4754
2018-01-06T14:01:37.173Z,994.4973
2018-01-06T14:02:36.840Z,994.5583
2018-01-06T14:03:45.300Z,994.5284
2018-01-06T14:04:37.750Z,994.5513
2018-01-06T14:05:37.104Z,994.5901
2018-01-06T14:06:43.026Z,994.5989
2018-01-06T14:07:41.748Z,994.5624
2018-01-06T14:08:37.140Z,994.5698
2018-01-06T14:09:39.021Z,994.5946
2018-01-06T14:10:36.900Z,994.6435
2018-01-06T14:11:37.109Z,994.6298
2018-01-06T14:12:37.439Z,994.7455
2018-01-06T14:13:36.881Z,994.7177
2018-01-06T14:14:36.881Z,994.7219
2018-01-06T14:15:46.041Z,994.7645
2018-01-06T14:16:36.953Z,994.7804
2018-01-06T14:17:41.188Z,994.7866
2018-01-06T14:18:37.399Z,994.8304
2018-01-06T14:19:37.372Z,994.8845
2018-01-06T14:20:36.992Z,994.871
2018-01-06T14:21:36.872Z,994.9451
2018-01-06T14:22:37.214Z,994.9158
2018-01-06T14:23:38.292Z,995.0201
2018-01-06T14:24:36.963Z,995.0471
2018-01-06T14:25:36.893Z,995.0306
2018-01-06T14:26:37.032Z,995.1013
2018-01-06T14:27:37.184Z,995.1231
2018-01-06T14:28:36.978Z,995.2043
2018-01-06T14:29:42.823Z,995.1501
2018-01-06T14:30:37.390Z,995.1375
2018-01-06T14:31:37.265Z,995.1864
2018-01-06T14:32:37.095Z,995.1667
2018-01-06T14:33:40.386Z,995.1144
2018-01-06T14:34:36.884Z,995.1583
2018-01-06T14:35:36.896Z,995.1583
2018-01-06T14:36:41.356Z,995.1196
2018-01-06T14:37:37.425Z,995.1642
2018-01-06T14:38:37.005Z,995.158
2018-01-06T14:39:36.935Z,995.2081
2018-01-06T14:40:37.125Z,995.192
2018-01-06T14:41:37.605Z,995.1573
2018-01-06T14:42:37.076Z,995.252
2018-01-06T14:43:37.376Z,995.2241
2018-01-06T14:44:37.429Z,995.2713
2018-01-06T14:45:40.747Z,995.3053
2018-01-06T14:46:38.337Z,995.3119
2018-01-06T14:47:37.003Z,995.301
2018-01-06T14:48:40.843Z,995.3273
2018-01-06T14:49:37.498Z,995.3265
2018-01-06T14:50:37.417Z,995.3466
2018-01-06T14:51:37.504Z,995.4119
2018-01-06T14:52:37.518Z,995.3901
2018-01-06T14:53:36.867Z,995.416
2018-01-06T14:54:37.039Z,995.4036
2018-01-06T14:55:37.640Z,995.3839
2018-01-06T14:56:36.878Z,995.3765
2018-01-06T14:57:36.918Z,995.4306
2018-01-06T14:58:38.335Z,995.4423
2018-01-06T14:59:37.060Z,995.4982
2018-01-06T15:00:38.097Z,995.4847
2018-01-06T15:01:36.948Z,995.4899
2018-01-06T15:02:36.911Z,995.4712
2018-01-06T15:03:37.259Z,995.5192
2018-01-06T15:04:36.949Z,995.5795
2018-01-06T15:05:36.923Z,995.5151
2018-01-06T15:06:39.231Z,995.5607
2018-01-06T15:07:37.671Z,995.5421
2018-01-06T15:08:37.041Z,995.564
2018-01-06T15:09:37.231Z,995.5184
2018-01-06T15:10:37.107Z,995.5673
2018-01-06T15:11:36.881Z,995.5402
2018-01-06T15:12:38.435Z,995.5556
2018-01-06T15:13:39.323Z,995.591
2018-01-06T15:14:36.958Z,995.5826
2018-01-06T15:15:37.956Z,995.6536
2018-01-06T15:16:37.760Z,995.7274
2018-01-06T15:17:37.520Z,995.6868
2018-01-06T15:18:36.977Z,995.7578
2018-01-06T15:19:40.732Z,995.7629
2018-01-06T15:20:39.426Z,995.7424
2018-01-06T15:21:39.337Z,995.7545
2018-01-06T15:22:36.926Z,995.7899
2018-01-06T15:23:36.953Z,995.8035
2018-01-06T15:24:37.136Z,995.7855
2018-01-06T15:25:36.867Z,995.817
2018-01-06T15:26:36.883Z,995.8159
2018-01-06T15:27:39.820Z,995.8345
2018-01-06T15:28:37.254Z,995.8293
2018-01-06T15:29:37.104Z,995.8126
2018-01-06T15:30:39.854Z,995.8041
2018-01-06T15:31:37.130Z,995.8521
2018-01-06T15:32:37.034Z,995.8385
2018-01-06T15:33:37.029Z,995.8571
2018-01-06T15:34:37.215Z,995.8521
2018-01-06T15:35:37.136Z,995.8301
2018-01-06T15:36:37.807Z,995.8352
2018-01-06T15:37:37.095Z,995.8579
2018-01-06T15:38:37.006Z,995.8649
2018-01-06T15:39:37.006Z,995.8948
2018-01-06T15:40:37.173Z,995.894
2018-01-06T15:41:39.234Z,995.8784
2018-01-06T15:42:37.446Z,995.9003
2018-01-06T15:43:37.740Z,995.8842
2018-01-06T15:44:37.667Z,995.9236
2018-01-06T15:45:38.229Z,995.8853
2018-01-06T15:46:36.887Z,995.9467
2018-01-06T15:47:37.356Z,995.9211
2018-01-06T15:48:37.067Z,995.8857
2018-01-06T15:49:36.931Z,995.9526
2018-01-06T15:50:37.143Z,995.9222
2018-01-06T15:51:36.978Z,995.8849
2018-01-06T15:52:40.328Z,995.9233
2018-01-06T15:53:36.937Z,995.9672
2018-01-06T15:54:37.120Z,995.9807
2018-01-06T15:55:37.787Z,995.9588
2018-01-06T15:56:36.998Z,996.1005
2018-01-06T15:57:36.928Z,996.067
2018-01-06T15:58:37.063Z,996.0768
2018-01-06T15:59:37.425Z,996.132
2018-01-06T16:00:37.160Z,996.1591
2018-01-06T16:01:37.341Z,996.2059
2018-01-06T16:02:39.309Z,996.2081
2018-01-06T16:03:37.359Z,996.2234
2018-01-06T16:04:37.264Z,996.3079
2018-01-06T16:05:36.899Z,996.2505
2018-01-06T16:06:36.960Z,996.2662
2018-01-06T16:07:37.206Z,996.3181
2018-01-06T16:08:38.007Z,996.3181
2018-01-06T16:09:37.440Z,996.34
2018-01-06T16:10:37.998Z,996.3638
2018-01-06T16:11:37.010Z,996.4348
2018-01-06T16:12:37.282Z,996.4127
2018-01-06T16:13:37.532Z,996.4534
2018-01-06T16:14:40.876Z,996.4861
2018-01-06T16:15:36.931Z,996.5301
2018-01-06T16:16:37.823Z,996.5048
2018-01-06T16:17:37.003Z,996.6215
2018-01-06T16:18:37.094Z,996.6891
2018-01-06T16:19:37.059Z,996.7278
2018-01-06T16:20:41.146Z,996.7182
2018-01-06T16:21:37.012Z,996.769
2018-01-06T16:22:37.251Z,996.8429
2018-01-06T16:23:36.898Z,996.8181
2018-01-06T16:24:36.953Z,996.8282
2018-01-06T16:25:42.972Z,996.8399
2018-01-06T16:26:37.224Z,996.8334
2018-01-06T16:27:38.964Z,996.8669
2018-01-06T16:28:37.254Z,996.8323
2018-01-06T16:29:38.044Z,996.8553
2018-01-06T16:30:37.240Z,996.8959
2018-01-06T16:31:37.230Z,996.8806
2018-01-06T16:32:37.154Z,996.889
2018-01-06T16:33:37.264Z,996.973
2018-01-06T16:34:37.232Z,996.9511
2018-01-06T16:35:37.125Z,996.9511
2018-01-06T16:36:37.484Z,996.9376
2018-01-06T16:37:38.011Z,996.9983
2018-01-06T16:38:38.357Z,996.9866
2018-01-06T16:39:38.858Z,996.9578
2018-01-06T16:40:37.445Z,996.9763
2018-01-06T16:41:37.342Z,996.9899
2018-01-06T16:42:36.976Z,997.0271
2018-01-06T16:43:37.962Z,996.9679
2018-01-06T16:44:37.667Z,997.0729
2018-01-06T16:45:40.567Z,997.0698
2018-01-06T16:46:37.336Z,997.0834
2018-01-06T16:47:39.607Z,997.1155
2018-01-06T16:48:37.057Z,997.1459
2018-01-06T16:49:41.430Z,997.1594
2018-01-06T16:50:37.107Z,997.1729
2018-01-06T16:51:37.343Z,997.1865
2018-01-06T16:52:37.337Z,997.1437
2018-01-06T16:53:37.065Z,997.2113
2018-01-06T16:54:37.070Z,997.2351
2018-01-06T16:55:37.110Z,997.2351
2018-01-06T16:56:37.140Z,997.2113
2018-01-06T16:57:39.530Z,997.2417
2018-01-06T16:58:37.119Z,997.2976
2018-01-06T16:59:37.199Z,997.2823
2018-01-06T17:00:36.964Z,997.2654
2018-01-06T17:01:37.215Z,997.2823
2018-01-06T17:02:37.140Z,997.3093
2018-01-06T17:03:36.994Z,997.3262
2018-01-06T17:04:37.441Z,997.3177
2018-01-06T17:05:37.020Z,997.3872
2018-01-06T17:06:36.999Z,997.3551
2018-01-06T17:07:38.369Z,997.3557
2018-01-06T17:08:37.320Z,997.3758
2018-01-06T17:09:37.341Z,997.4193
2018-01-06T17:10:37.180Z,997.4434
2018-01-06T17:11:38.517Z,997.4537
2018-01-06T17:12:37.170Z,997.4232